Time;durP1;ratioP1;P1;durP2;ratioP2;P2;SDS_P1;SDS_P2;PMS_P1;PMS_P2;Temp;Humidity;BMP_temperature;BMP_pressure;BME280_temperature;BME280_humidity;BME280_pressure;Samples;Min_cycle;Max_cycle;Signal;HPM_P1;HPM_P2
2024/01/24 00:01:13;;;;;;;1.40;1.30;;;12.20;99.90;;;;;;5060712;28;20063;-76
2024/01/24 00:03:39;;;;;;;3.13;0.93;;;12.20;99.90;;;;;;5040717;28;20045;-76
2024/01/24 00:06:06;;;;;;;0.88;0.70;;;12.10;99.90;;;;;;5044525;28;20045;-76
2024/01/24 00:08:33;;;;;;;1.35;1.10;;;12.10;99.90;;;;;;5032794;28;20049;-76
2024/01/24 00:10:58;;;;;;;2.80;1.30;;;12.10;99.90;;;;;;5062110;28;20041;-76
2024/01/24 00:13:24;;;;;;;5.40;1.90;;;12.10;99.90;;;;;;5035728;28;20056;-75
2024/01/24 00:15:50;;;;;;;1.55;0.90;;;12.10;99.90;;;;;;5013802;28;20175;-75
2024/01/24 00:18:16;;;;;;;1.30;1.00;;;12.20;99.90;;;;;;5041689;28;20045;-75
2024/01/24 00:20:42;;;;;;;0.82;0.82;;;12.20;99.90;;;;;;5071242;28;20041;-75
2024/01/24 00:23:07;;;;;;;0.80;0.73;;;12.20;99.90;;;;;;5055595;28;20047;-75
2024/01/24 00:25:33;;;;;;;0.73;0.70;;;12.30;99.90;;;;;;5042187;28;20048;-75
2024/01/24 00:27:59;;;;;;;5.78;0.88;;;12.30;99.90;;;;;;5054712;28;20052;-75
2024/01/24 00:30:24;;;;;;;1.10;1.00;;;12.30;99.90;;;;;;5052574;28;20175;-75
2024/01/24 00:32:50;;;;;;;0.63;0.60;;;12.30;99.90;;;;;;5063121;28;20044;-75
2024/01/24 00:35:16;;;;;;;4.38;1.45;;;12.40;99.90;;;;;;5017886;28;20045;-75
2024/01/24 00:37:42;;;;;;;0.95;0.63;;;12.40;99.90;;;;;;5065119;28;20104;-75
2024/01/24 00:40:08;;;;;;;9.35;1.55;;;12.40;99.90;;;;;;5067216;28;20040;-75
2024/01/24 00:42:34;;;;;;;1.10;1.00;;;12.40;99.90;;;;;;5052429;28;20080;-74
2024/01/24 00:45:00;;;;;;;2.50;0.70;;;12.40;99.90;;;;;;5058851;28;20049;-74
2024/01/24 00:47:25;;;;;;;1.10;0.80;;;12.50;99.90;;;;;;5031488;28;20037;-74
2024/01/24 00:49:51;;;;;;;1.30;0.82;;;12.50;99.90;;;;;;5064930;28;20590;-74
2024/01/24 00:52:17;;;;;;;1.10;0.50;;;12.50;99.90;;;;;;5053394;28;20073;-74
2024/01/24 00:54:42;;;;;;;4.65;1.05;;;12.60;99.90;;;;;;5049760;28;20105;-74
2024/01/24 00:57:08;;;;;;;2.75;0.80;;;12.60;99.90;;;;;;5077778;28;20044;-74
2024/01/24 00:59:34;;;;;;;0.98;0.60;;;12.70;99.90;;;;;;5028337;28;20471;-74
2024/01/24 01:02:00;;;;;;;2.03;0.80;;;12.70;99.90;;;;;;5038078;28;20038;-74
2024/01/24 01:04:25;;;;;;;0.80;0.77;;;12.70;99.90;;;;;;5048009;28;20053;-74
2024/01/24 01:06:51;;;;;;;2.80;0.85;;;12.70;99.90;;;;;;5079415;28;20117;-74
2024/01/24 01:09:17;;;;;;;1.00;0.73;;;12.70;99.90;;;;;;5055198;28;20083;-75
2024/01/24 01:11:42;;;;;;;0.63;0.52;;;12.60;99.90;;;;;;5060620;28;20086;-75
2024/01/24 01:14:08;;;;;;;2.78;0.40;;;12.60;99.90;;;;;;5062447;28;20051;-74
2024/01/24 01:16:34;;;;;;;1.20;0.52;;;12.60;99.90;;;;;;5038206;28;20052;-75
2024/01/24 01:18:59;;;;;;;0.45;0.30;;;12.50;99.90;;;;;;5063599;28;20570;-74
2024/01/24 01:21:25;;;;;;;0.15;0.15;;;12.40;99.90;;;;;;5054103;28;20131;-74
2024/01/24 01:23:51;;;;;;;1.95;0.52;;;12.40;99.90;;;;;;5063361;28;20040;-74
2024/01/24 01:26:16;;;;;;;2.00;0.52;;;12.40;99.90;;;;;;5065487;28;20091;-74
2024/01/24 01:28:42;;;;;;;0.98;0.40;;;12.40;99.90;;;;;;5044518;28;20038;-74
2024/01/24 01:31:08;;;;;;;0.20;0.20;;;12.30;99.90;;;;;;5040304;28;20231;-74
2024/01/24 01:33:33;;;;;;;0.43;0.28;;;12.30;99.90;;;;;;5041912;28;20049;-74
2024/01/24 01:35:59;;;;;;;0.40;0.30;;;12.30;99.90;;;;;;5053826;28;20075;-74
2024/01/24 01:38:25;;;;;;;0.70;0.50;;;12.30;99.90;;;;;;5023204;28;20042;-74
2024/01/24 01:40:50;;;;;;;0.38;0.38;;;12.30;99.90;;;;;;5071377;28;20107;-74
2024/01/24 01:43:16;;;;;;;0.40;0.40;;;12.30;99.90;;;;;;5050113;28;20032;-74
2024/01/24 01:45:42;;;;;;;0.68;0.15;;;12.30;99.90;;;;;;5059967;28;20047;-74
2024/01/24 01:48:10;;;;;;;5.80;0.57;;;12.30;99.90;;;;;;5035158;28;20036;-74
2024/01/24 01:50:36;;;;;;;0.73;0.40;;;12.30;99.90;;;;;;5046085;28;20049;-74
2024/01/24 01:53:04;;;;;;;1.48;0.40;;;12.30;99.90;;;;;;5079343;28;20123;-74
2024/01/24 01:55:31;;;;;;;0.75;0.40;;;12.30;99.90;;;;;;5085382;28;20052;-75
2024/01/24 01:57:58;;;;;;;0.85;0.35;;;12.30;99.90;;;;;;5037409;28;20052;-74
2024/01/24 02:00:25;;;;;;;0.38;0.30;;;12.30;99.90;;;;;;5044584;28;20083;-74
2024/01/24 02:02:51;;;;;;;2.30;0.43;;;12.30;99.90;;;;;;5050776;28;20045;-74
2024/01/24 02:05:17;;;;;;;0.32;0.32;;;12.20;99.90;;;;;;5075833;28;20414;-74
2024/01/24 02:07:44;;;;;;;1.50;0.45;;;12.20;99.90;;;;;;5065878;28;20079;-74
2024/01/24 02:10:11;;;;;;;0.40;0.25;;;12.20;99.90;;;;;;5064976;28;20049;-74
2024/01/24 02:12:37;;;;;;;0.20;0.20;;;12.20;99.90;;;;;;5058922;28;20053;-74
2024/01/24 02:15:03;;;;;;;0.20;0.20;;;12.20;99.90;;;;;;5045747;28;20053;-74
2024/01/24 02:17:29;;;;;;;0.75;0.50;;;12.20;99.90;;;;;;5082545;28;20049;-75
2024/01/24 02:19:55;;;;;;;1.70;0.45;;;12.20;99.90;;;;;;5057464;28;20033;-75
2024/01/24 02:22:20;;;;;;;1.17;0.40;;;12.20;99.90;;;;;;5019383;28;20041;-75
2024/01/24 02:24:46;;;;;;;5.10;0.55;;;12.20;99.90;;;;;;5040283;28;20198;-74
2024/01/24 02:27:13;;;;;;;1.05;0.30;;;12.30;99.90;;;;;;5046278;28;20533;-74
2024/01/24 02:29:39;;;;;;;2.53;0.80;;;12.20;99.90;;;;;;5044326;28;20041;-76
2024/01/24 02:32:05;;;;;;;1.10;0.40;;;12.20;99.90;;;;;;5025860;28;20530;-76
2024/01/24 02:34:31;;;;;;;1.38;0.50;;;12.10;99.90;;;;;;5084997;28;20116;-76
2024/01/24 02:36:57;;;;;;;0.77;0.73;;;12.10;99.90;;;;;;5076986;28;20079;-77
2024/01/24 02:39:23;;;;;;;2.25;0.20;;;12.00;99.90;;;;;;5043142;28;20032;-77
2024/01/24 02:41:48;;;;;;;1.15;0.30;;;11.90;99.90;;;;;;5062696;28;20040;-77
2024/01/24 02:44:14;;;;;;;2.40;0.25;;;11.90;99.90;;;;;;5060538;28;20061;-76
2024/01/24 02:46:40;;;;;;;0.20;0.20;;;11.90;99.90;;;;;;5084687;28;20037;-75
2024/01/24 02:49:05;;;;;;;0.20;0.20;;;11.80;99.90;;;;;;5063508;28;20037;-76
2024/01/24 02:51:31;;;;;;;5.63;0.50;;;11.80;99.90;;;;;;5062202;28;20531;-76
2024/01/24 02:53:57;;;;;;;0.50;0.28;;;11.70;99.90;;;;;;5064916;28;20051;-77
2024/01/24 02:56:22;;;;;;;1.00;0.55;;;11.70;99.90;;;;;;5052007;28;20116;-75
2024/01/24 02:58:48;;;;;;;0.98;0.38;;;11.70;99.90;;;;;;5060270;28;20033;-76
2024/01/24 03:01:15;;;;;;;4.13;0.73;;;11.70;99.90;;;;;;5062730;28;20060;-78
2024/01/24 03:03:43;;;;;;;1.08;0.55;;;11.70;99.90;;;;;;5078507;28;20078;-76
2024/01/24 03:06:09;;;;;;;4.13;0.50;;;11.60;99.90;;;;;;5060369;28;20053;-77
2024/01/24 03:08:54;;;;;;;4.82;1.20;;;11.60;99.90;;;;;;5081716;28;20055;-77
2024/01/24 03:11:20;;;;;;;1.58;0.22;;;11.50;99.90;;;;;;5058225;28;20040;-77
2024/01/24 03:13:46;;;;;;;4.80;1.15;;;11.40;99.90;;;;;;5067567;28;20045;-77
2024/01/24 03:16:12;;;;;;;5.68;0.88;;;11.40;99.90;;;;;;5055668;28;20036;-77
2024/01/24 03:18:38;;;;;;;5.25;0.65;;;11.30;99.90;;;;;;5052234;28;20044;-77
2024/01/24 03:21:09;;;;;;;6.60;0.63;;;11.20;99.90;;;;;;5045073;28;20041;-78
2024/01/24 03:23:38;;;;;;;3.33;0.55;;;11.20;99.90;;;;;;5067696;28;20064;-78
2024/01/24 03:26:06;;;;;;;4.43;0.40;;;11.10;99.90;;;;;;5081413;28;20060;-77
2024/01/24 03:28:32;;;;;;;3.70;0.60;;;11.20;99.90;;;;;;5040549;28;20040;-78
2024/01/24 03:30:59;;;;;;;3.70;0.55;;;11.20;99.90;;;;;;5023171;28;20098;-77
2024/01/24 03:33:24;;;;;;;3.75;0.80;;;11.10;99.90;;;;;;5041028;28;20051;-78
2024/01/24 03:35:50;;;;;;;3.70;1.67;;;11.10;99.90;;;;;;5048993;28;20076;-77
2024/01/24 03:38:16;;;;;;;4.00;0.50;;;11.10;99.90;;;;;;5040437;28;20181;-77
2024/01/24 03:40:42;;;;;;;4.88;0.88;;;11.10;99.90;;;;;;5061669;28;20037;-77
2024/01/24 03:43:10;;;;;;;6.68;1.05;;;11.10;99.90;;;;;;5088506;28;20040;-77
2024/01/24 03:45:37;;;;;;;1.15;0.65;;;11.00;99.90;;;;;;5066140;28;20057;-78
2024/01/24 03:48:06;;;;;;;5.93;0.88;;;11.00;99.90;;;;;;5052000;28;20438;-77
2024/01/24 03:50:35;;;;;;;7.10;0.88;;;11.00;99.90;;;;;;5044397;28;20063;-77
2024/01/24 03:53:01;;;;;;;6.93;1.05;;;10.90;99.90;;;;;;5049644;28;20049;-77
2024/01/24 03:55:28;;;;;;;8.20;1.13;;;10.90;99.90;;;;;;5070900;28;20053;-77
2024/01/24 03:57:53;;;;;;;4.10;1.10;;;10.90;99.90;;;;;;5050002;28;20028;-77
2024/01/24 04:00:20;;;;;;;11.27;1.15;;;10.90;99.90;;;;;;5040512;28;20065;-76
2024/01/24 04:02:46;;;;;;;9.95;1.45;;;11.00;99.90;;;;;;5061770;28;20485;-77
2024/01/24 04:05:12;;;;;;;7.50;1.05;;;11.00;99.90;;;;;;5050879;28;20039;-77
2024/01/24 04:07:38;;;;;;;7.40;1.10;;;11.00;99.90;;;;;;5039169;28;20056;-76
2024/01/24 04:10:04;;;;;;;9.50;1.40;;;11.00;99.90;;;;;;5051152;28;20122;-76
2024/01/24 04:12:30;;;;;;;3.45;1.17;;;11.00;99.90;;;;;;5048738;28;20051;-76
2024/01/24 04:14:56;;;;;;;4.68;0.98;;;11.10;99.90;;;;;;5051225;28;20086;-76
2024/01/24 04:17:22;;;;;;;8.98;2.10;;;11.10;99.90;;;;;;5068486;28;20045;-76
2024/01/24 04:19:48;;;;;;;14.85;2.38;;;11.10;99.90;;;;;;5038082;28;20438;-75
2024/01/24 04:22:15;;;;;;;13.73;2.45;;;11.20;99.90;;;;;;5048065;28;20083;-75
2024/01/24 04:24:42;;;;;;;13.85;2.05;;;11.20;99.90;;;;;;5052161;28;20049;-75
2024/01/24 04:27:07;;;;;;;6.15;1.10;;;11.20;99.90;;;;;;5041298;28;20037;-75
2024/01/24 04:29:33;;;;;;;7.97;1.23;;;11.30;99.90;;;;;;5052332;28;20045;-75
2024/01/24 04:31:59;;;;;;;17.65;2.78;;;11.30;99.90;;;;;;5032670;28;20080;-75
2024/01/24 04:34:24;;;;;;;14.30;1.17;;;11.30;99.90;;;;;;5077315;28;20083;-75
2024/01/24 04:36:54;;;;;;;8.70;1.58;;;11.30;99.90;;;;;;5042174;28;20045;-75
2024/01/24 04:39:20;;;;;;;6.55;0.80;;;11.40;99.90;;;;;;5056342;28;20066;-75
2024/01/24 04:41:46;;;;;;;13.70;1.23;;;11.30;99.90;;;;;;5048844;28;20854;-75
2024/01/24 04:44:11;;;;;;;5.78;1.40;;;11.30;99.90;;;;;;5061761;28;20044;-75
2024/01/24 04:46:37;;;;;;;5.70;1.55;;;11.40;99.90;;;;;;5056176;28;20448;-75
2024/01/24 04:49:03;;;;;;;7.78;1.20;;;11.40;99.90;;;;;;5051317;28;20096;-75
2024/01/24 04:51:29;;;;;;;8.35;1.45;;;11.40;99.90;;;;;;5060230;28;20053;-75
2024/01/24 04:53:54;;;;;;;13.60;1.58;;;11.40;99.90;;;;;;5042527;28;20041;-75
2024/01/24 04:56:20;;;;;;;6.20;1.08;;;11.40;99.90;;;;;;5059814;28;20125;-75
2024/01/24 04:58:45;;;;;;;9.40;1.55;;;11.30;99.90;;;;;;5038624;28;20041;-74
2024/01/24 05:01:11;;;;;;;11.05;1.33;;;11.30;99.90;;;;;;5044515;28;20100;-74
2024/01/24 05:03:37;;;;;;;9.85;1.63;;;11.30;99.90;;;;;;5043915;28;20565;-74
2024/01/24 05:06:03;;;;;;;7.40;1.80;;;11.20;99.90;;;;;;5049368;28;20049;-73
2024/01/24 05:08:29;;;;;;;8.70;1.52;;;11.20;99.90;;;;;;5024068;28;20060;-74
2024/01/24 05:10:55;;;;;;;9.73;1.77;;;11.20;99.90;;;;;;5072974;28;20060;-74
2024/01/24 05:13:20;;;;;;;10.93;1.98;;;11.10;99.90;;;;;;5058403;28;20506;-73
2024/01/24 05:15:46;;;;;;;10.82;1.40;;;11.10;99.90;;;;;;5037355;28;20114;-74
2024/01/24 05:18:12;;;;;;;15.23;1.90;;;11.10;99.90;;;;;;5049298;28;20046;-74
2024/01/24 05:20:37;;;;;;;9.32;1.60;;;11.00;99.90;;;;;;5069074;28;20049;-73
2024/01/24 05:23:04;;;;;;;19.23;2.45;;;11.00;99.90;;;;;;5033036;28;20563;-74
2024/01/24 05:25:30;;;;;;;19.15;2.03;;;10.90;99.90;;;;;;5070127;28;20080;-74
2024/01/24 05:27:56;;;;;;;6.30;1.25;;;10.80;99.90;;;;;;5042583;28;20068;-73
2024/01/24 05:30:22;;;;;;;8.23;1.52;;;10.80;99.90;;;;;;5038989;28;20079;-73
2024/01/24 05:32:47;;;;;;;7.10;2.17;;;10.70;99.90;;;;;;5050160;28;20045;-74
2024/01/24 05:35:13;;;;;;;12.15;2.33;;;10.70;99.90;;;;;;5056316;28;20048;-73
2024/01/24 05:37:39;;;;;;;11.45;1.70;;;10.70;99.90;;;;;;5041408;28;20048;-73
2024/01/24 05:40:06;;;;;;;17.67;1.80;;;10.60;99.90;;;;;;5052031;28;20600;-73
2024/01/24 05:42:33;;;;;;;19.05;2.85;;;10.60;99.90;;;;;;5044285;28;20067;-73
2024/01/24 05:44:59;;;;;;;13.70;1.83;;;10.50;99.90;;;;;;5019155;28;20099;-73
2024/01/24 05:47:25;;;;;;;6.80;1.85;;;10.50;99.90;;;;;;5056102;28;20045;-74
2024/01/24 05:49:50;;;;;;;20.92;3.08;;;10.40;99.90;;;;;;5053179;28;20098;-73
2024/01/24 05:52:16;;;;;;;11.40;1.80;;;10.40;99.90;;;;;;5082787;28;20051;-73
2024/01/24 05:54:42;;;;;;;10.05;1.83;;;10.30;99.90;;;;;;5080530;28;20040;-73
2024/01/24 05:57:07;;;;;;;20.17;2.38;;;10.30;99.90;;;;;;5095648;28;20049;-73
2024/01/24 05:59:33;;;;;;;11.13;2.35;;;10.30;99.90;;;;;;5030572;28;20045;-73
2024/01/24 06:01:59;;;;;;;15.30;2.33;;;10.20;99.90;;;;;;5046375;28;20072;-73
2024/01/24 06:04:24;;;;;;;10.70;1.60;;;10.20;99.90;;;;;;5026185;28;20033;-73
2024/01/24 06:06:50;;;;;;;10.35;2.10;;;10.20;99.90;;;;;;5046042;28;20092;-73
2024/01/24 06:09:20;;;;;;;10.60;2.40;;;10.20;99.90;;;;;;5063108;28;20064;-74
2024/01/24 06:11:48;;;;;;;8.15;1.88;;;10.20;99.90;;;;;;5033221;28;20041;-73
2024/01/24 06:14:14;;;;;;;13.45;2.30;;;10.20;99.90;;;;;;5086076;28;20127;-73
2024/01/24 06:16:39;;;;;;;24.80;2.22;;;10.20;99.90;;;;;;5044660;28;20056;-73
2024/01/24 06:19:05;;;;;;;11.13;3.10;;;10.30;99.90;;;;;;5085332;28;20561;-74
2024/01/24 06:21:31;;;;;;;8.63;2.28;;;10.30;99.90;;;;;;5047123;28;20045;-73
2024/01/24 06:23:57;;;;;;;11.35;2.60;;;10.30;99.90;;;;;;5079538;28;20095;-73
2024/01/24 06:26:23;;;;;;;15.40;1.77;;;10.40;99.90;;;;;;5028940;28;20037;-73
2024/01/24 06:28:48;;;;;;;12.52;1.95;;;10.40;99.90;;;;;;5058968;28;20049;-74
2024/01/24 06:31:14;;;;;;;5.55;1.27;;;10.40;99.90;;;;;;5045880;28;20056;-72
2024/01/24 06:33:40;;;;;;;19.90;3.03;;;10.40;99.90;;;;;;5061594;28;20100;-71
2024/01/24 06:36:07;;;;;;;21.58;2.92;;;10.40;99.90;;;;;;5056739;28;20048;-71
2024/01/24 06:38:32;;;;;;;25.52;2.47;;;10.40;99.90;;;;;;5053474;28;20439;-71
2024/01/24 06:40:58;;;;;;;16.02;2.85;;;10.40;99.90;;;;;;5071119;28;20037;-71
2024/01/24 06:43:23;;;;;;;17.75;2.47;;;10.30;99.90;;;;;;5010749;28;20474;-71
2024/01/24 06:45:49;;;;;;;27.92;4.53;;;10.30;99.90;;;;;;5056491;28;20160;-71
2024/01/24 06:48:15;;;;;;;11.23;2.55;;;10.30;99.90;;;;;;5072710;28;20111;-71
2024/01/24 06:50:40;;;;;;;27.23;3.42;;;10.20;99.90;;;;;;5047748;28;20041;-71
2024/01/24 06:53:10;;;;;;;19.25;3.10;;;10.20;99.90;;;;;;5012286;28;20476;-71
2024/01/24 06:55:36;;;;;;;14.30;2.58;;;10.30;99.90;;;;;;5025281;28;20484;-71
2024/01/24 06:58:02;;;;;;;19.02;3.03;;;10.30;99.90;;;;;;5060304;28;20045;-71
2024/01/24 07:00:29;;;;;;;20.05;2.67;;;10.30;99.90;;;;;;5053102;28;20049;-71
2024/01/24 07:02:56;;;;;;;18.27;2.17;;;10.30;99.90;;;;;;5092806;28;20353;-71
2024/01/24 07:05:21;;;;;;;29.58;4.15;;;10.30;99.90;;;;;;5034453;28;20037;-71
2024/01/24 07:07:47;;;;;;;13.73;2.88;;;10.30;99.90;;;;;;5056132;28;20048;-71
2024/01/24 07:10:13;;;;;;;11.50;2.38;;;10.30;99.90;;;;;;5056524;28;20041;-71
2024/01/24 07:12:44;;;;;;;9.02;2.00;;;10.30;99.90;;;;;;5005763;28;20176;-71
2024/01/24 07:15:17;;;;;;;18.42;2.97;;;10.40;99.90;;;;;;5048304;28;20104;-71
2024/01/24 07:17:42;;;;;;;;;;;10.40;99.90;;;;;;5037289;28;20061;-71
2024/01/24 07:20:08;;;;;;;24.88;3.90;;;10.50;99.90;;;;;;5061981;28;19971;-71
2024/01/24 07:22:34;;;;;;;19.15;3.05;;;10.40;99.90;;;;;;5048548;28;20079;-71
2024/01/24 07:25:00;;;;;;;13.35;2.78;;;10.50;99.90;;;;;;5057927;28;20483;-71
2024/01/24 07:27:25;;;;;;;14.32;2.40;;;10.50;99.90;;;;;;5043861;28;20047;-71
2024/01/24 07:29:51;;;;;;;18.00;3.85;;;10.50;99.90;;;;;;5042294;28;20075;-71
2024/01/24 07:32:17;;;;;;;18.05;3.08;;;10.50;99.90;;;;;;5022311;28;20052;-71
2024/01/24 07:34:43;;;;;;;22.33;3.33;;;10.50;99.90;;;;;;5034908;28;20042;-71
2024/01/24 07:37:09;;;;;;;18.02;2.28;;;10.50;99.90;;;;;;5059303;28;20043;-71
2024/01/24 07:39:35;;;;;;;20.05;2.35;;;10.50;99.90;;;;;;5090174;28;20555;-71
2024/01/24 07:42:01;;;;;;;19.55;2.83;;;10.50;99.90;;;;;;5063349;28;20099;-71
2024/01/24 07:44:26;;;;;;;13.93;2.20;;;10.40;99.90;;;;;;5021418;28;20037;-71
2024/01/24 07:46:53;;;;;;;17.65;2.65;;;10.40;99.90;;;;;;5048701;28;20049;-71
2024/01/24 07:49:19;;;;;;;23.33;3.30;;;10.40;99.90;;;;;;5022472;28;20036;-71
2024/01/24 07:51:46;;;;;;;23.05;3.53;;;10.40;99.90;;;;;;5004721;28;20044;-71
2024/01/24 07:54:12;;;;;;;11.95;2.67;;;10.40;99.90;;;;;;5042608;28;20041;-71
2024/01/24 07:56:39;;;;;;;24.02;3.30;;;10.40;99.90;;;;;;5018175;28;20057;-71
2024/01/24 07:59:05;;;;;;;12.68;2.13;;;10.30;99.90;;;;;;5034251;28;20402;-71
2024/01/24 08:01:31;;;;;;;19.80;2.78;;;10.30;99.90;;;;;;5034048;28;20064;-71
2024/01/24 08:04:00;;;;;;;19.42;3.30;;;10.20;99.90;;;;;;5033641;28;20053;-71
2024/01/24 08:06:26;;;;;;;18.45;3.40;;;10.20;99.90;;;;;;5051385;28;20045;-71
2024/01/24 08:08:51;;;;;;;3.85;1.70;;;10.20;99.90;;;;;;5019467;28;20104;-71
2024/01/24 08:11:17;;;;;;;16.45;3.30;;;10.20;99.90;;;;;;5054910;28;20030;-71
2024/01/24 08:13:44;;;;;;;23.75;2.95;;;10.30;99.90;;;;;;5018976;28;20045;-71
2024/01/24 08:16:10;;;;;;;14.05;2.78;;;10.20;99.90;;;;;;5018640;28;20040;-72
2024/01/24 08:18:36;;;;;;;17.52;1.42;;;10.20;99.90;;;;;;5051293;28;20056;-71
2024/01/24 08:21:01;;;;;;;18.45;2.20;;;10.20;99.90;;;;;;5032779;28;20041;-72
2024/01/24 08:23:27;;;;;;;19.58;3.38;;;10.10;99.90;;;;;;5019505;28;20445;-71
2024/01/24 08:25:53;;;;;;;17.30;2.60;;;10.10;99.90;;;;;;5002062;28;20599;-70
2024/01/24 08:28:18;;;;;;;9.95;2.78;;;10.20;99.90;;;;;;5028502;28;20045;-71
2024/01/24 08:30:44;;;;;;;19.75;2.92;;;10.20;99.90;;;;;;5038693;28;20049;-71
2024/01/24 08:33:10;;;;;;;18.83;2.95;;;10.10;99.90;;;;;;5054586;28;20172;-71
2024/01/24 08:35:36;;;;;;;10.35;3.55;;;10.10;99.90;;;;;;5031570;28;20044;-71
2024/01/24 08:38:03;;;;;;;11.02;2.38;;;10.10;99.90;;;;;;5074630;28;20126;-71
2024/01/24 08:40:29;;;;;;;29.63;3.15;;;10.20;99.90;;;;;;5054179;28;20453;-71
2024/01/24 08:42:54;;;;;;;24.95;3.30;;;10.20;99.90;;;;;;5047734;28;20051;-71
2024/01/24 08:45:20;;;;;;;16.05;3.63;;;10.10;99.90;;;;;;5068516;28;20053;-71
2024/01/24 08:47:46;;;;;;;13.88;3.00;;;10.20;99.90;;;;;;5033660;28;20118;-71
2024/01/24 08:50:12;;;;;;;21.10;3.13;;;10.20;99.90;;;;;;5058023;28;20040;-71
2024/01/24 08:52:38;;;;;;;17.80;3.83;;;10.10;99.90;;;;;;5058493;28;20052;-71
2024/01/24 08:55:06;;;;;;;18.65;2.63;;;10.20;99.90;;;;;;5058580;28;20084;-71
2024/01/24 08:57:32;;;;;;;19.00;3.22;;;10.20;99.90;;;;;;5058935;28;20076;-71
2024/01/24 08:59:58;;;;;;;22.40;3.25;;;10.20;99.90;;;;;;5080282;28;20091;-71
2024/01/24 09:02:25;;;;;;;25.00;3.08;;;10.20;99.90;;;;;;5046873;28;20056;-71
2024/01/24 09:04:52;;;;;;;28.05;4.47;;;10.20;99.90;;;;;;5096814;28;20037;-71
2024/01/24 09:07:20;;;;;;;6.25;1.08;;;10.20;99.90;;;;;;5070628;28;20096;-71
2024/01/24 09:09:51;;;;;;;19.65;2.30;;;10.20;99.90;;;;;;5063677;28;20495;-71
2024/01/24 09:12:17;;;;;;;16.27;2.78;;;10.20;99.90;;;;;;5097028;28;20037;-72
2024/01/24 09:14:46;;;;;;;21.20;3.70;;;10.20;99.90;;;;;;5063172;28;20051;-72
2024/01/24 09:17:13;;;;;;;24.77;3.78;;;10.30;99.90;;;;;;5089536;28;20052;-71
2024/01/24 09:19:40;;;;;;;27.00;3.42;;;10.50;99.90;;;;;;5079676;28;20040;-71
2024/01/24 09:22:06;;;;;;;29.35;3.28;;;10.60;99.90;;;;;;5097186;28;20041;-71
2024/01/24 09:24:32;;;;;;;9.70;2.47;;;10.60;99.90;;;;;;5096488;28;20048;-71
2024/01/24 09:26:58;;;;;;;11.45;1.67;;;10.70;99.90;;;;;;5075665;28;20045;-72
2024/01/24 09:29:24;;;;;;;14.15;2.70;;;10.70;99.90;;;;;;5096873;28;20564;-71
2024/01/24 09:31:50;;;;;;;18.90;4.35;;;10.60;99.90;;;;;;5032572;28;20068;-71
2024/01/24 09:34:16;;;;;;;12.98;3.03;;;10.60;99.90;;;;;;5063563;28;20136;-71
2024/01/24 09:36:42;;;;;;;9.57;2.17;;;10.70;99.90;;;;;;5061358;28;20055;-71
2024/01/24 09:39:09;;;;;;;18.05;3.72;;;10.70;99.90;;;;;;5044520;28;20104;-72
2024/01/24 09:41:40;;;;;;;15.15;2.47;;;10.60;99.90;;;;;;5046172;28;20040;-71
2024/01/24 09:44:09;;;;;;;16.30;2.22;;;10.60;99.90;;;;;;5079304;28;20074;-72
2024/01/24 09:46:40;;;;;;;17.35;3.65;;;10.70;99.90;;;;;;5079610;28;20108;-71
2024/01/24 09:49:06;;;;;;;20.70;2.85;;;10.80;99.90;;;;;;5043743;28;20068;-71
2024/01/24 09:51:33;;;;;;;15.20;2.38;;;10.90;99.90;;;;;;5063130;28;20040;-71
2024/01/24 09:54:07;;;;;;;12.50;2.45;;;11.20;99.90;;;;;;5045773;28;20048;-72
2024/01/24 09:56:35;;;;;;;15.68;3.53;;;11.40;99.90;;;;;;5066471;28;20078;-72
2024/01/24 09:59:06;;;;;;;15.52;2.08;;;11.60;99.90;;;;;;5037088;28;20049;-72
2024/01/24 10:01:34;;;;;;;20.10;3.10;;;11.70;99.90;;;;;;5051791;28;20060;-72
2024/01/24 10:04:01;;;;;;;17.55;2.83;;;11.80;99.90;;;;;;5062737;28;20071;-71
2024/01/24 10:06:28;;;;;;;13.15;3.05;;;11.80;99.90;;;;;;5079533;28;20043;-71
2024/01/24 10:08:55;;;;;;;12.70;2.85;;;11.70;99.90;;;;;;5047010;28;20063;-71
2024/01/24 10:11:21;;;;;;;12.35;1.73;;;11.70;99.90;;;;;;5072474;28;20056;-72
2024/01/24 10:13:46;;;;;;;20.05;3.05;;;11.60;99.90;;;;;;5053867;28;20059;-72
2024/01/24 10:16:12;;;;;;;22.05;3.60;;;11.50;99.90;;;;;;5056692;28;20123;-71
2024/01/24 10:18:38;;;;;;;16.88;3.17;;;11.40;99.90;;;;;;5075500;28;20087;-72
2024/01/24 10:21:05;;;;;;;16.05;2.47;;;11.30;99.90;;;;;;5051996;28;20049;-71
2024/01/24 10:23:31;;;;;;;16.13;2.53;;;11.10;99.90;;;;;;5061501;28;20048;-72
2024/01/24 10:26:00;;;;;;;15.00;2.63;;;11.00;99.90;;;;;;5096217;28;20079;-72
2024/01/24 10:28:25;;;;;;;14.05;2.42;;;11.00;99.90;;;;;;5078345;28;20075;-72
2024/01/24 10:30:51;;;;;;;20.15;2.83;;;11.00;99.90;;;;;;5037187;28;20056;-72
2024/01/24 10:33:17;;;;;;;14.07;1.90;;;10.90;99.90;;;;;;5062136;28;20082;-72
2024/01/24 10:35:43;;;;;;;13.07;2.63;;;10.90;99.90;;;;;;5045683;28;20048;-72
2024/01/24 10:38:11;;;;;;;18.98;2.80;;;10.90;99.90;;;;;;5061997;28;20044;-72
2024/01/24 10:40:39;;;;;;;14.55;2.15;;;10.90;99.90;;;;;;5035017;28;20041;-71
2024/01/24 10:43:18;;;;;;;18.85;2.47;;;10.90;99.90;;;;;;5062437;28;20084;-72
2024/01/24 10:45:44;;;;;;;13.10;2.88;;;10.90;99.90;;;;;;5060753;28;20051;-72
2024/01/24 10:48:15;;;;;;;24.23;2.45;;;10.90;99.90;;;;;;5062001;28;20048;-72
2024/01/24 10:50:41;;;;;;;11.13;2.13;;;10.90;99.90;;;;;;5047249;28;20077;-72
2024/01/24 10:53:13;;;;;;;19.73;2.65;;;10.90;99.90;;;;;;5046246;28;20475;-72
2024/01/24 10:55:40;;;;;;;14.68;2.40;;;10.90;99.90;;;;;;5078645;28;20080;-72
2024/01/24 10:58:09;;;;;;;9.82;2.38;;;10.90;99.90;;;;;;5061026;28;20044;-72
2024/01/24 11:00:36;;;;;;;15.23;2.03;;;10.90;99.90;;;;;;5087229;28;20418;-72
2024/01/24 11:03:02;;;;;;;15.45;2.58;;;10.90;99.90;;;;;;5058344;28;20048;-72
2024/01/24 11:05:35;;;;;;;19.60;2.80;;;10.90;99.90;;;;;;5095358;28;20506;-72
2024/01/24 11:08:10;;;;;;;7.90;1.70;;;10.90;99.90;;;;;;5061071;28;20039;-72
2024/01/24 11:10:43;;;;;;;18.60;2.47;;;10.90;99.90;;;;;;5078557;28;20071;-72
2024/01/24 11:13:11;;;;;;;22.65;3.45;;;10.90;99.90;;;;;;5062078;28;20037;-72
2024/01/24 11:15:37;;;;;;;14.50;1.98;;;11.00;99.90;;;;;;5094066;28;20040;-72
2024/01/24 11:18:22;;;;;;;13.90;2.80;;;11.00;99.90;;;;;;5050764;28;20098;-72
2024/01/24 11:20:52;;;;;;;11.23;1.95;;;11.00;99.90;;;;;;5048057;28;20045;-72
2024/01/24 11:23:41;;;;;;;12.07;2.25;;;11.00;99.90;;;;;;5048691;28;20119;-72
2024/01/24 11:26:11;;;;;;;20.10;2.80;;;11.00;99.90;;;;;;5043460;28;20076;-72
2024/01/24 11:28:37;;;;;;;7.05;1.70;;;11.00;99.90;;;;;;5068334;28;20041;-72
2024/01/24 11:31:04;;;;;;;15.00;2.65;;;11.00;99.90;;;;;;5042444;28;20056;-72
2024/01/24 11:33:30;;;;;;;18.98;3.30;;;11.00;99.90;;;;;;5034540;28;20513;-72
2024/01/24 11:35:56;;;;;;;9.38;2.00;;;11.00;99.90;;;;;;5065837;28;20044;-72
2024/01/24 11:38:26;;;;;;;11.90;2.50;;;11.00;99.90;;;;;;5085852;28;20136;-72
2024/01/24 11:41:03;;;;;;;9.55;2.45;;;10.90;99.90;;;;;;5062917;28;20043;-72
2024/01/24 11:43:30;;;;;;;11.68;1.88;;;10.90;99.90;;;;;;5081082;28;20067;-72
2024/01/24 11:46:02;;;;;;;9.82;3.50;;;10.90;99.90;;;;;;5041786;28;20064;-72
2024/01/24 11:48:29;;;;;;;14.55;2.22;;;10.90;99.90;;;;;;5061314;28;20041;-72
2024/01/24 11:50:58;;;;;;;19.55;2.55;;;11.00;99.90;;;;;;5060481;28;20086;-72
2024/01/24 11:53:25;;;;;;;8.93;1.98;;;11.00;99.90;;;;;;5073763;28;20045;-72
2024/01/24 11:55:56;;;;;;;15.43;2.22;;;11.00;99.90;;;;;;5034469;28;20121;-71
2024/01/24 11:58:26;;;;;;;20.17;2.60;;;11.10;99.90;;;;;;5044584;28;20055;-72
2024/01/24 12:01:10;;;;;;;13.15;3.28;;;11.10;99.90;;;;;;5094583;28;20063;-72
2024/01/24 12:03:37;;;;;;;15.30;2.45;;;11.10;99.90;;;;;;5073996;28;20049;-72
2024/01/24 12:06:06;;;;;;;12.15;2.25;;;11.10;99.90;;;;;;5054767;28;20041;-72
2024/01/24 12:08:32;;;;;;;13.10;2.05;;;11.00;99.90;;;;;;5058053;28;20041;-72
2024/01/24 12:10:58;;;;;;;19.92;2.10;;;11.00;99.90;;;;;;5049561;28;20040;-72
2024/01/24 12:13:27;;;;;;;7.80;2.55;;;11.00;99.90;;;;;;5080566;28;20056;-72
2024/01/24 12:15:55;;;;;;;12.40;1.30;;;11.00;99.90;;;;;;5072138;28;20070;-72
2024/01/24 12:18:20;;;;;;;20.00;2.42;;;10.90;99.90;;;;;;5050421;28;20051;-72
2024/01/24 12:20:48;;;;;;;19.17;2.38;;;10.90;99.90;;;;;;5060357;28;20045;-72
2024/01/24 12:23:15;;;;;;;16.23;2.75;;;10.90;99.90;;;;;;5065424;28;20109;-72
2024/01/24 12:25:42;;;;;;;7.72;2.33;;;10.90;99.90;;;;;;5061400;28;20037;-72
2024/01/24 12:28:08;;;;;;;18.70;1.83;;;11.00;99.90;;;;;;5032809;28;20072;-72
2024/01/24 12:30:35;;;;;;;9.07;1.75;;;11.10;99.90;;;;;;5085422;28;20117;-72
2024/01/24 12:33:02;;;;;;;12.63;2.17;;;11.10;99.90;;;;;;5045840;28;20025;-72
2024/01/24 12:35:29;;;;;;;11.27;2.40;;;11.10;99.90;;;;;;5062505;28;20523;-73
2024/01/24 12:37:59;;;;;;;17.42;2.22;;;11.10;99.90;;;;;;5059398;28;20049;-73